Details From USPP - Bolshoye Savino
To LCPH - Pafos Intl
Flight Number -
Tags Generated
Created
Modified
Stats Distance 1,683 nm / 3,117 km
Max Altitude 0 ft / 0 m
Waypoints 8
Social Downloads 1
Likes 0
Share VATSIM

Download

Looking for another format? Having issues loading an existing format? Contact us
Advertisement - Login to hide

Notes

Generated

Route

USPP LEKBO US01 NELBA RF ERCIS PHA22 LCPH

ID Type Via Altitude Latitude Longitude Leg Dist Tot Dist Heading (true) Name
O USPP APT - 0 ft / 0 m 57.90452˚ 56.00177˚ - 0 nm - -
LEKBO FIX - 0 ft / 0 m 55.26667˚ 51.13333˚ 225 nm 225 nm 228° / 223° -
US01 FIX - 0 ft / 0 m 51.81333˚ 46.39333˚ 267 nm 493 nm 221° / 217° -
NELBA FIX - 0 ft / 0 m 48.58333˚ 42.86667˚ 236 nm 729 nm 216° / 214° -
RF NDB - 0 ft / 0 m 45.28333˚ 39.91667˚ 232 nm 962 nm 212° / 210° -
ERCIS FIX - 0 ft / 0 m 38.27028˚ 34.94361˚ 476 nm 1438 nm 210° / 206° -
PHA22 FIX - 0 ft / 0 m 34.72432˚ 32.46475˚ 244 nm 1682 nm 210° / 209° -
O LCPH APT - 0 ft / 0 m 34.72226˚ 32.47189˚ 0 nm 1682 nm 109° / 109° -

Altitude Profile

Advertisement - Login to hide

Weather


0- 5 10 15 20 25 30 35+ Temperature / ° C

Clouds and Precipitation
Forecast for 2018-05-26 12:00 UTC. Updated an hour ago

Ground ~20,000 ft ~40,000 ft Winds

USPP

Details ICAO USPP (PEE)
Name BOLSHOYE SAVINO
Region Russia
Timezone Asia/Yekaterinburg (UTC+5.0)
Stats Elevation 404 ft / 123 m (AMSL)
Location 57.914517° 56.021214°
Runways 1
Magnetic Variation 15.632° E

METAR

USPP 261230Z 35005MPS 320V020 CAVOK 13/M04 Q1024 R03/090060 NOSIG RMK QFE757

Decode

TAF

TAF USPP 261058Z 2612/2712 36007MPS CAVOK TEMPO 2612/2615 32013MPS BECMG 2615/2617 28007MPS

Decode

Departure Runways

ID Width Length Bearing (true) Bearing (mag) Surface Threshold Offset Overrun Length
03 161 ft / 49 m 10,493 ft / 3,198 m 45.91° 30.28° Concrete 0 ft / 0 m 165 ft / 50 m
21 161 ft / 49 m 10,493 ft / 3,198 m 225.95° 210.32° Concrete 0 ft / 0 m 155 ft / 47 m

LCPH

Details ICAO LCPH (PFO)
Name PAFOS INTL
Region Cyprus
Timezone Asia/Nicosia (UTC+3.0)
Stats Elevation 41 ft / 12 m (AMSL)
Location 34.718038° 32.485731°
Runways 1
Magnetic Variation 4.957° E

METAR

LCPH 261230Z 26009KT 210V300 9999 FEW020 26/19 Q1009

Decode

TAF

TAF LCPH 261130Z 2612/2712 28012KT 9999 FEW020 BECMG 2617/2621 03006KT BECMG 2707/2711 28010KT

Decode

Destination Runways

ID Width Length Bearing (true) Bearing (mag) Surface Threshold Offset Overrun Length
11 148 ft / 45 m 8,854 ft / 2,699 m 110.34° 105.38° Asphalt 0 ft / 0 m 0 ft / 0 m
29 148 ft / 45 m 8,854 ft / 2,699 m 290.36° 285.40° Asphalt 0 ft / 0 m 150 ft / 46 m

Approach Navaids

Runway Type Ident Frequency Range Bearing (true) Bearing (mag) Slope Elevation
29 Localiser IPA 108.90 MHz 18 nm / 33 km 292.21° 287.25° - 73 ft / 22 m (AMSL)
29 Glidescope IPA 108.90 MHz 10 nm / 19 km 290.35° 285.39° 3.00° 73 ft / 22 m (AMSL)
29 DME IPA 108.90 MHz 18 nm / 33 km - - - 73 ft / 22 m (AMSL)